Time;durP1;ratioP1;P1;durP2;ratioP2;P2;SDS_P1;SDS_P2;PMS_P1;PMS_P2;Temp;Humidity;BMP_temperature;BMP_pressure;BME280_temperature;BME280_humidity;BME280_pressure;Samples;Min_cycle;Max_cycle;Signal;HPM_P1;HPM_P2
2021/08/29 00:00:23;;;;;;;11.80;5.30;;;15.90;99.90;;;;;;5062608;28;20263;-88
2021/08/29 00:02:49;;;;;;;12.90;5.73;;;15.80;99.90;;;;;;5066627;28;20229;-88
2021/08/29 00:05:14;;;;;;;10.30;4.97;;;15.70;99.90;;;;;;5059296;28;20176;-87
2021/08/29 00:07:40;;;;;;;12.40;5.40;;;15.70;99.90;;;;;;5058516;28;20186;-87
2021/08/29 00:10:07;;;;;;;14.07;5.90;;;15.70;99.90;;;;;;5061631;28;20645;-88
2021/08/29 00:12:33;;;;;;;12.87;5.50;;;15.80;99.90;;;;;;5061079;28;20187;-88
2021/08/29 00:14:59;;;;;;;11.60;5.13;;;15.90;99.90;;;;;;5055729;28;20717;-87
2021/08/29 00:17:24;;;;;;;15.23;5.83;;;16.00;99.90;;;;;;5060518;28;20239;-87
2021/08/29 00:19:50;;;;;;;13.10;5.87;;;16.00;99.90;;;;;;5058512;28;20652;-88
2021/08/29 00:22:16;;;;;;;13.73;5.30;;;15.90;99.90;;;;;;5078692;28;20274;-88
2021/08/29 00:24:42;;;;;;;13.43;5.80;;;15.80;99.90;;;;;;5076975;28;20210;-88
2021/08/29 00:27:08;;;;;;;15.83;5.57;;;15.80;99.90;;;;;;5052847;28;20181;-88
2021/08/29 00:29:37;;;;;;;15.67;5.93;;;15.80;99.90;;;;;;5060575;28;20267;-87
2021/08/29 00:32:03;;;;;;;15.23;5.40;;;15.90;99.90;;;;;;5061015;28;20187;-87
2021/08/29 00:34:29;;;;;;;12.67;5.70;;;15.80;99.90;;;;;;5062728;28;20300;-88
2021/08/29 00:36:55;;;;;;;14.77;5.87;;;15.70;99.90;;;;;;5060843;28;20182;-87
2021/08/29 00:39:20;;;;;;;12.27;5.10;;;15.60;99.90;;;;;;5076413;28;20187;-87
2021/08/29 00:41:47;;;;;;;15.80;5.70;;;15.60;99.90;;;;;;5059874;28;20234;-89
2021/08/29 00:44:15;;;;;;;14.23;5.90;;;15.50;99.90;;;;;;5076003;28;20191;-89
2021/08/29 00:46:42;;;;;;;12.53;5.10;;;15.50;99.90;;;;;;5061853;28;20200;-88
2021/08/29 00:49:13;;;;;;;13.00;5.17;;;15.50;99.90;;;;;;5053511;28;20195;-89
2021/08/29 00:51:39;;;;;;;11.03;4.60;;;15.40;99.90;;;;;;5056376;28;20218;-90
2021/08/29 00:54:05;;;;;;;11.00;4.53;;;15.30;99.90;;;;;;5073172;28;20177;-89
2021/08/29 00:56:31;;;;;;;12.70;4.83;;;15.20;99.90;;;;;;5075561;28;20173;-89
2021/08/29 00:58:58;;;;;;;12.87;5.30;;;15.20;99.90;;;;;;5061863;28;20187;-89
2021/08/29 01:01:40;;;;;;;12.70;5.13;;;15.20;99.90;;;;;;5059956;28;20190;-88
2021/08/29 01:04:15;;;;;;;14.97;4.90;;;15.30;99.90;;;;;;5059681;28;20262;-89
2021/08/29 01:07:11;;;;;;;11.00;5.30;;;15.30;99.90;;;;;;5056640;28;20174;-90
2021/08/29 01:09:55;;;;;;;16.30;4.70;;;15.30;99.90;;;;;;5076193;28;20202;-91
2021/08/29 01:12:29;;;;;;;12.60;5.37;;;15.30;99.90;;;;;;5059319;28;20233;-90
2021/08/29 01:15:05;;;;;;;12.33;5.33;;;15.30;99.90;;;;;;5048842;28;20187;-90
2021/08/29 01:17:36;;;;;;;13.83;6.20;;;15.50;99.90;;;;;;5078390;28;20179;-91
2021/08/29 01:20:23;;;;;;;11.17;5.50;;;15.60;99.90;;;;;;5057688;28;20183;-90
2021/08/29 01:22:51;;;;;;;16.53;5.73;;;15.60;99.90;;;;;;5065634;28;20208;-89
2021/08/29 01:25:22;;;;;;;18.90;6.10;;;15.50;99.90;;;;;;5078482;28;20305;-87
2021/08/29 01:28:12;;;;;;;15.30;6.10;;;15.40;99.90;;;;;;5060460;28;20205;-87
2021/08/29 01:30:40;;;;;;;12.80;5.50;;;15.20;99.90;;;;;;5059809;28;20190;-87
2021/08/29 01:33:07;;;;;;;11.33;5.30;;;15.20;99.90;;;;;;5053651;28;21834;-87
2021/08/29 01:35:41;;;;;;;15.20;5.13;;;15.10;99.90;;;;;;5077526;28;20207;-87
2021/08/29 01:38:10;;;;;;;10.87;4.67;;;15.10;99.90;;;;;;5049477;28;20596;-87
2021/08/29 01:40:37;;;;;;;10.77;5.07;;;15.10;99.90;;;;;;5066113;28;20183;-87
2021/08/29 01:43:04;;;;;;;14.03;4.97;;;15.10;99.90;;;;;;5060169;28;20214;-87
2021/08/29 01:45:33;;;;;;;11.40;5.20;;;15.10;99.90;;;;;;5057211;28;20164;-87
2021/08/29 01:47:59;;;;;;;12.80;5.23;;;15.10;99.90;;;;;;5060120;28;20179;-88
2021/08/29 01:50:33;;;;;;;12.30;4.87;;;15.00;99.90;;;;;;5052187;28;20234;-87
2021/08/29 01:53:05;;;;;;;11.17;5.10;;;14.90;99.90;;;;;;5061359;28;20580;-89
2021/08/29 01:55:59;;;;;;;11.77;5.53;;;14.80;99.90;;;;;;5011430;28;20217;-90
2021/08/29 01:58:43;;;;;;;13.00;5.73;;;14.90;99.90;;;;;;5060556;28;20231;-87
2021/08/29 02:01:13;;;;;;;14.90;5.67;;;14.90;99.90;;;;;;5054682;28;20213;-88
2021/08/29 02:03:43;;;;;;;14.70;5.43;;;14.90;99.90;;;;;;5056060;28;20206;-87
2021/08/29 02:06:31;;;;;;;10.97;5.07;;;15.00;99.90;;;;;;5062220;28;20681;-87
2021/08/29 02:09:01;;;;;;;13.97;6.13;;;15.00;99.90;;;;;;5074426;28;20304;-88
2021/08/29 02:11:41;;;;;;;12.37;5.47;;;15.20;99.90;;;;;;5062295;28;20663;-88
2021/08/29 02:14:18;;;;;;;12.77;5.00;;;15.20;99.90;;;;;;5059521;28;20179;-88
2021/08/29 02:16:45;;;;;;;14.30;5.47;;;15.30;99.90;;;;;;5073271;28;20280;-88
2021/08/29 02:19:13;;;;;;;12.10;5.50;;;15.50;99.90;;;;;;5058643;28;20677;-88
2021/08/29 02:21:41;;;;;;;10.87;5.10;;;15.50;99.90;;;;;;5058547;28;20223;-89
2021/08/29 02:24:09;;;;;;;11.63;5.10;;;15.40;99.90;;;;;;5059357;28;20181;-88
2021/08/29 02:26:37;;;;;;;12.87;5.57;;;15.40;99.90;;;;;;5057471;28;20661;-89
2021/08/29 02:29:12;;;;;;;12.10;5.20;;;15.40;99.90;;;;;;5061101;28;20239;-88
2021/08/29 02:31:39;;;;;;;11.20;5.60;;;15.40;99.90;;;;;;5056943;28;20172;-89
2021/08/29 02:34:05;;;;;;;14.30;6.40;;;15.50;99.90;;;;;;5074022;28;20178;-90
2021/08/29 02:36:32;;;;;;;12.53;5.47;;;15.50;99.90;;;;;;5065752;28;20172;-89
2021/08/29 02:39:00;;;;;;;12.73;5.80;;;15.50;99.90;;;;;;5069441;28;20180;-90
2021/08/29 02:41:28;;;;;;;15.07;5.80;;;15.50;99.90;;;;;;5075013;28;20180;-90
2021/08/29 02:43:57;;;;;;;16.17;6.27;;;15.60;99.90;;;;;;5055932;28;20657;-89
2021/08/29 02:46:24;;;;;;;14.43;5.63;;;15.60;99.90;;;;;;5076668;28;20184;-90
2021/08/29 02:48:50;;;;;;;13.77;5.90;;;15.60;99.90;;;;;;5059963;28;20176;-90
2021/08/29 02:51:17;;;;;;;17.27;6.50;;;15.70;99.90;;;;;;5057458;28;20184;-90
2021/08/29 02:53:47;;;;;;;17.00;6.50;;;15.80;99.90;;;;;;5059015;28;20207;-90
2021/08/29 02:56:13;;;;;;;13.20;6.20;;;15.90;99.90;;;;;;5067109;28;20211;-89
2021/08/29 02:58:40;;;;;;;15.37;6.80;;;15.80;99.90;;;;;;5059485;28;20263;-90
2021/08/29 03:01:12;;;;;;;13.30;6.10;;;15.70;99.90;;;;;;5071989;28;20176;-90
2021/08/29 03:03:58;;;;;;;13.23;6.33;;;15.70;99.90;;;;;;5077612;28;20196;-89
2021/08/29 03:06:25;;;;;;;13.97;6.30;;;15.60;99.90;;;;;;5058546;28;20191;-90
2021/08/29 03:08:51;;;;;;;14.77;6.50;;;15.60;99.90;;;;;;5054973;28;20594;-90
2021/08/29 03:11:19;;;;;;;16.33;6.83;;;15.60;99.90;;;;;;5077272;28;20184;-89
2021/08/29 03:13:46;;;;;;;19.63;7.10;;;15.60;99.90;;;;;;5056110;28;20227;-90
2021/08/29 03:16:12;;;;;;;15.37;6.10;;;15.60;99.90;;;;;;5045515;28;20286;-89
2021/08/29 03:18:47;;;;;;;14.53;5.63;;;15.60;99.90;;;;;;5049676;28;20197;-90
2021/08/29 03:21:45;;;;;;;13.97;6.23;;;15.60;99.90;;;;;;5049008;28;20189;-90
2021/08/29 03:24:13;;;;;;;13.23;6.77;;;15.60;99.90;;;;;;5053742;28;20271;-89
2021/08/29 03:26:40;;;;;;;15.87;6.33;;;15.70;99.90;;;;;;5055973;28;20178;-89
2021/08/29 03:29:14;;;;;;;17.20;6.13;;;15.70;99.90;;;;;;5045104;28;20175;-89
2021/08/29 03:31:41;;;;;;;15.17;6.10;;;15.80;99.90;;;;;;5056601;28;20268;-90
2021/08/29 03:34:09;;;;;;;12.23;5.43;;;15.90;99.90;;;;;;5060225;28;20195;-90
2021/08/29 03:36:35;;;;;;;14.83;5.77;;;16.00;99.90;;;;;;5043582;28;20189;-90
2021/08/29 03:39:03;;;;;;;15.13;6.27;;;16.00;99.90;;;;;;5059367;28;20570;-89
2021/08/29 03:41:30;;;;;;;14.03;6.13;;;16.00;99.90;;;;;;5060819;28;20173;-89
2021/08/29 03:43:59;;;;;;;16.83;7.20;;;16.00;99.90;;;;;;5039130;28;20186;-89
2021/08/29 03:46:25;;;;;;;14.87;5.77;;;16.10;99.90;;;;;;5068182;28;20192;-89
2021/08/29 03:48:53;;;;;;;14.53;6.53;;;16.10;99.90;;;;;;5056355;28;20194;-90
2021/08/29 03:51:23;;;;;;;18.20;7.20;;;16.10;99.90;;;;;;5072508;28;20193;-90
2021/08/29 03:53:50;;;;;;;12.60;6.17;;;16.20;99.90;;;;;;5063898;28;20194;-89
2021/08/29 03:56:16;;;;;;;13.03;5.87;;;16.30;99.90;;;;;;5035554;28;20279;-89
2021/08/29 03:58:42;;;;;;;13.13;5.70;;;16.30;99.90;;;;;;5057111;28;20251;-89
2021/08/29 04:01:09;;;;;;;14.53;5.87;;;16.30;99.90;;;;;;5061514;28;20178;-90
2021/08/29 04:03:35;;;;;;;13.43;5.33;;;16.40;99.90;;;;;;5073652;28;20202;-89
2021/08/29 04:06:04;;;;;;;12.43;5.63;;;16.20;99.90;;;;;;5075308;28;20190;-90
2021/08/29 04:08:37;;;;;;;12.47;5.83;;;16.20;99.90;;;;;;5041631;28;20193;-90
2021/08/29 04:11:04;;;;;;;13.73;5.80;;;16.20;99.90;;;;;;5076128;28;20225;-89
2021/08/29 04:13:32;;;;;;;11.37;5.30;;;16.30;99.90;;;;;;5072766;28;20221;-91
2021/08/29 04:16:10;;;;;;;18.23;6.67;;;16.30;99.90;;;;;;5067763;28;20234;-90
2021/08/29 04:18:43;;;;;;;14.53;6.00;;;16.30;99.90;;;;;;5042716;28;20205;-91
2021/08/29 04:21:11;;;;;;;18.20;7.57;;;16.40;99.90;;;;;;5038467;28;20526;-91
2021/08/29 04:23:38;;;;;;;14.10;6.90;;;16.40;99.90;;;;;;5057620;28;20219;-93
2021/08/29 04:26:07;;;;;;;15.17;6.43;;;16.40;99.90;;;;;;5042665;28;20204;-92
2021/08/29 04:28:33;;;;;;;16.07;6.67;;;16.40;99.90;;;;;;5041934;28;20179;-89
2021/08/29 04:31:02;;;;;;;13.67;6.60;;;16.40;99.90;;;;;;5040657;28;20205;-89
2021/08/29 04:33:32;;;;;;;17.10;6.43;;;16.40;99.90;;;;;;5034951;28;20184;-90
2021/08/29 04:36:20;;;;;;;16.47;6.57;;;16.40;99.90;;;;;;5048892;28;20193;-91
2021/08/29 04:38:47;;;;;;;13.00;5.87;;;16.30;99.90;;;;;;5039312;28;20281;-90
2021/08/29 04:41:13;;;;;;;15.20;6.00;;;16.30;99.90;;;;;;5063815;28;20181;-91
2021/08/29 04:43:39;;;;;;;13.00;6.77;;;16.40;99.90;;;;;;5043324;28;20217;-92
2021/08/29 04:46:05;;;;;;;12.70;5.60;;;16.40;99.90;;;;;;5041998;28;20579;-91
2021/08/29 04:48:31;;;;;;;15.73;6.80;;;16.40;99.90;;;;;;5048817;28;20195;-91
2021/08/29 04:50:58;;;;;;;16.07;6.40;;;16.40;99.90;;;;;;5060474;28;20178;-90
2021/08/29 04:53:26;;;;;;;15.27;6.33;;;16.50;99.90;;;;;;5063208;28;20194;-91
2021/08/29 04:55:51;;;;;;;13.53;6.13;;;16.50;99.90;;;;;;5054410;28;20269;-91
2021/08/29 04:58:18;;;;;;;14.00;6.33;;;16.50;99.90;;;;;;5048188;28;20250;-91
2021/08/29 05:00:45;;;;;;;18.67;6.47;;;16.50;99.90;;;;;;5063517;28;20645;-91
2021/08/29 05:03:12;;;;;;;17.07;7.20;;;16.60;99.90;;;;;;5042311;28;20658;-92
2021/08/29 05:05:39;;;;;;;16.07;7.13;;;16.60;99.90;;;;;;5044761;28;20684;-91
2021/08/29 05:08:05;;;;;;;14.50;6.50;;;16.60;99.90;;;;;;5044674;28;20185;-93
2021/08/29 05:10:32;;;;;;;15.67;6.80;;;16.60;99.90;;;;;;5044188;28;20269;-94
2021/08/29 05:13:11;;;;;;;15.90;6.70;;;16.70;99.90;;;;;;5046008;28;20293;-91
2021/08/29 05:15:37;;;;;;;15.93;5.73;;;16.70;99.90;;;;;;5038171;28;20334;-92
2021/08/29 05:18:03;;;;;;;12.83;5.90;;;16.70;99.90;;;;;;5051273;28;20190;-91
2021/08/29 05:20:32;;;;;;;17.47;7.33;;;16.70;99.90;;;;;;5059592;28;20183;-92
2021/08/29 05:23:30;;;;;;;12.97;6.47;;;16.70;99.90;;;;;;5054046;28;20297;-90
2021/08/29 05:26:22;;;;;;;14.23;6.80;;;16.70;99.90;;;;;;5066473;28;20178;-92
2021/08/29 05:28:48;;;;;;;13.23;6.60;;;16.80;99.90;;;;;;5060244;28;20190;-91
2021/08/29 05:31:14;;;;;;;13.60;6.63;;;16.80;99.90;;;;;;5063644;28;20244;-92
2021/08/29 05:33:45;;;;;;;18.20;6.57;;;16.80;99.90;;;;;;5075436;28;20186;-87
2021/08/29 05:36:12;;;;;;;18.63;6.53;;;16.80;99.90;;;;;;5061899;28;20350;-89
2021/08/29 05:38:38;;;;;;;13.57;6.30;;;16.80;99.90;;;;;;5058426;28;20198;-92
2021/08/29 05:41:19;;;;;;;14.80;6.83;;;16.80;99.90;;;;;;5062923;28;20720;-91
2021/08/29 05:44:07;;;;;;;18.00;7.00;;;16.90;99.90;;;;;;5079716;28;20662;-92
2021/08/29 05:46:38;;;;;;;15.90;7.10;;;17.00;99.90;;;;;;5060569;28;20180;-91
2021/08/29 05:49:04;;;;;;;21.00;8.23;;;17.10;99.90;;;;;;5063373;28;20728;-85
2021/08/29 05:51:31;;;;;;;17.40;7.30;;;17.20;99.90;;;;;;5064518;28;20198;-91
2021/08/29 05:53:57;;;;;;;19.53;7.67;;;17.30;99.90;;;;;;5070445;28;20654;-93
2021/08/29 05:56:23;;;;;;;15.17;7.30;;;17.40;99.90;;;;;;5073423;28;20192;-92
2021/08/29 05:58:50;;;;;;;19.80;7.70;;;17.50;99.90;;;;;;5076388;28;20218;-94
2021/08/29 06:01:16;;;;;;;17.37;7.60;;;17.50;99.90;;;;;;5090087;28;20178;-91
2021/08/29 06:03:45;;;;;;;18.23;7.77;;;17.60;99.90;;;;;;5068991;28;20660;-93
2021/08/29 06:06:33;;;;;;;18.30;7.13;;;17.60;99.90;;;;;;5091283;28;20186;-92
2021/08/29 06:09:01;;;;;;;17.80;7.20;;;17.80;99.90;;;;;;5086759;28;20190;-92
2021/08/29 06:11:27;;;;;;;15.00;7.20;;;17.80;99.90;;;;;;5070647;28;20647;-90
2021/08/29 06:13:53;;;;;;;16.47;7.63;;;17.90;99.90;;;;;;5073028;28;20661;-89
2021/08/29 06:16:19;;;;;;;14.63;6.63;;;17.90;99.90;;;;;;5070636;28;20229;-91
2021/08/29 06:18:45;;;;;;;16.80;6.67;;;18.00;99.90;;;;;;5067798;28;20183;-90
2021/08/29 06:21:10;;;;;;;18.20;7.63;;;17.90;99.90;;;;;;5059443;28;20289;-91
2021/08/29 06:23:37;;;;;;;15.73;6.83;;;17.90;99.90;;;;;;5068910;28;20261;-91
2021/08/29 06:26:21;;;;;;;17.47;7.00;;;18.00;99.90;;;;;;5093694;28;20222;-90
2021/08/29 06:29:05;;;;;;;17.30;6.63;;;18.10;99.90;;;;;;5096279;28;20225;-91
2021/08/29 06:31:34;;;;;;;18.57;7.10;;;18.00;99.90;;;;;;5103713;28;20235;-91
2021/08/29 06:34:02;;;;;;;17.13;7.00;;;18.00;99.90;;;;;;5076418;28;20556;-92
2021/08/29 06:36:32;;;;;;;13.03;6.43;;;18.10;99.90;;;;;;5049748;28;20199;-91
2021/08/29 06:38:58;;;;;;;17.37;6.90;;;18.20;99.90;;;;;;5068866;28;20266;-92
2021/08/29 06:41:25;;;;;;;13.10;6.00;;;18.40;99.90;;;;;;5065408;28;20188;-91
2021/08/29 06:43:54;;;;;;;15.83;6.70;;;18.60;99.90;;;;;;5069534;28;20207;-90
2021/08/29 06:46:48;;;;;;;15.40;6.30;;;18.70;99.90;;;;;;5016257;28;20184;-91
2021/08/29 06:49:32;;;;;;;14.07;6.60;;;18.70;99.90;;;;;;5071062;28;20249;-90
2021/08/29 06:52:27;;;;;;;17.30;6.90;;;18.70;99.90;;;;;;5035715;28;20196;-91
2021/08/29 06:55:11;;;;;;;14.80;6.30;;;18.60;99.90;;;;;;5085600;28;20210;-92
2021/08/29 06:57:56;;;;;;;13.63;6.37;;;18.40;99.90;;;;;;5084299;28;20276;-92
2021/08/29 07:00:23;;;;;;;15.37;5.80;;;18.40;99.90;;;;;;5060821;28;20187;-93
2021/08/29 07:02:49;;;;;;;14.67;6.00;;;18.60;99.90;;;;;;5066627;28;20246;-91
2021/08/29 07:05:16;;;;;;;12.93;6.40;;;18.80;99.90;;;;;;5057572;28;20179;-91
2021/08/29 07:08:04;;;;;;;14.93;5.93;;;19.00;99.90;;;;;;5077948;28;20199;-91
2021/08/29 07:10:37;;;;;;;14.37;5.33;;;19.20;99.90;;;;;;5065137;28;20179;-92
2021/08/29 07:13:21;;;;;;;13.57;6.10;;;18.90;99.90;;;;;;5069274;28;20194;-90
2021/08/29 07:15:47;;;;;;;15.40;6.40;;;18.70;99.90;;;;;;5063779;28;20230;-89
2021/08/29 07:18:13;;;;;;;13.37;5.80;;;19.00;99.90;;;;;;5062525;28;20187;-90
2021/08/29 07:20:57;;;;;;;15.37;6.37;;;19.30;99.90;;;;;;5080666;28;20198;-90
2021/08/29 07:23:41;;;;;;;12.27;5.87;;;19.60;99.90;;;;;;5081021;28;20520;-88
2021/08/29 07:26:26;;;;;;;16.87;6.20;;;19.80;99.90;;;;;;5080862;28;20224;-89
2021/08/29 07:29:10;;;;;;;15.07;5.70;;;19.80;99.90;;;;;;5073875;28;20958;-88
2021/08/29 07:31:58;;;;;;;11.43;5.80;;;19.90;99.90;;;;;;5099444;28;20192;-92
2021/08/29 07:34:45;;;;;;;15.23;5.47;;;20.00;99.90;;;;;;5067363;28;20182;-92
2021/08/29 07:37:40;;;;;;;14.77;5.53;;;20.10;99.90;;;;;;5059544;28;20255;-91
2021/08/29 07:40:26;;;;;;;17.57;5.73;;;19.80;99.90;;;;;;5082348;28;20186;-91
2021/08/29 07:42:52;;;;;;;14.63;5.83;;;19.90;99.90;;;;;;5063718;28;20656;-89
2021/08/29 07:45:18;;;;;;;13.27;5.37;;;19.90;99.90;;;;;;5064196;28;20185;-90
2021/08/29 07:47:44;;;;;;;13.50;5.37;;;19.90;99.90;;;;;;5061462;28;20205;-89
2021/08/29 07:50:10;;;;;;;12.83;5.13;;;20.00;99.90;;;;;;5080393;28;20175;-89
2021/08/29 07:52:36;;;;;;;14.43;5.70;;;20.10;99.90;;;;;;5061538;28;20186;-90
2021/08/29 07:55:26;;;;;;;12.93;4.90;;;19.90;99.90;;;;;;5078475;28;20198;-89
2021/08/29 07:58:15;;;;;;;14.70;5.53;;;19.80;99.90;;;;;;5082445;28;20275;-89
2021/08/29 08:00:41;;;;;;;13.80;4.60;;;19.70;99.90;;;;;;5077293;28;20250;-88
2021/08/29 08:03:25;;;;;;;15.30;5.27;;;19.60;99.90;;;;;;5078560;28;20665;-86
2021/08/29 08:06:09;;;;;;;14.03;4.83;;;19.70;99.90;;;;;;5081399;28;20170;-87
2021/08/29 08:08:55;;;;;;;17.87;4.60;;;19.60;99.90;;;;;;5076640;28;20679;-82
2021/08/29 08:11:39;;;;;;;14.57;4.60;;;19.20;99.90;;;;;;5072446;28;20220;-82
2021/08/29 08:14:06;;;;;;;17.83;4.43;;;19.30;99.90;;;;;;5059258;28;20189;-83
2021/08/29 08:16:32;;;;;;;10.30;4.30;;;19.20;99.90;;;;;;5056173;28;20223;-84
2021/08/29 08:19:01;;;;;;;15.13;3.97;;;18.90;99.90;;;;;;5064093;28;20566;-88
2021/08/29 08:21:27;;;;;;;17.27;4.03;;;18.90;99.90;;;;;;5070870;28;20172;-83
2021/08/29 08:24:10;;;;;;;13.03;4.10;;;18.90;99.90;;;;;;5065317;28;20199;-85
2021/08/29 08:26:55;;;;;;;16.13;4.67;;;18.90;99.90;;;;;;5065587;28;20278;-84
2021/08/29 08:29:44;;;;;;;11.67;4.23;;;19.10;99.90;;;;;;5073754;28;20199;-83
2021/08/29 08:32:29;;;;;;;12.50;4.10;;;19.30;99.90;;;;;;5091770;28;20189;-89
2021/08/29 08:35:23;;;;;;;14.43;4.20;;;19.40;99.90;;;;;;5060168;28;20200;-88
2021/08/29 08:37:57;;;;;;;20.63;4.73;;;19.40;99.90;;;;;;5063603;28;20285;-88
2021/08/29 08:40:42;;;;;;;14.07;3.90;;;19.30;99.90;;;;;;5081384;28;20246;-88
2021/08/29 08:43:16;;;;;;;13.33;4.30;;;19.30;99.90;;;;;;5066666;28;20215;-88
2021/08/29 08:46:03;;;;;;;15.80;3.80;;;19.30;99.90;;;;;;5083728;28;20190;-89
2021/08/29 08:48:50;;;;;;;16.77;4.20;;;19.30;99.90;;;;;;5082004;28;20218;-89
2021/08/29 08:51:38;;;;;;;12.53;3.70;;;19.40;99.90;;;;;;5076989;28;20270;-90
2021/08/29 08:54:24;;;;;;;15.33;3.60;;;19.30;99.90;;;;;;5081496;28;20182;-89
2021/08/29 08:57:09;;;;;;;12.90;3.70;;;19.40;99.90;;;;;;5079390;28;20199;-90
2021/08/29 09:00:01;;;;;;;14.27;3.70;;;19.60;99.90;;;;;;5054460;28;20188;-90
2021/08/29 09:02:46;;;;;;;12.27;3.53;;;19.40;99.90;;;;;;5078568;28;20211;-90
2021/08/29 09:05:31;;;;;;;15.40;3.70;;;19.60;99.90;;;;;;5074732;28;20526;-90
2021/08/29 09:08:12;;;;;;;18.90;4.40;;;19.70;99.90;;;;;;5063428;28;20172;-90
2021/08/29 09:10:38;;;;;;;16.47;4.10;;;19.90;99.90;;;;;;5074759;28;20268;-90
2021/08/29 09:13:06;;;;;;;10.80;3.93;;;19.70;99.90;;;;;;5062271;28;20189;-88
2021/08/29 09:15:33;;;;;;;19.03;3.90;;;19.60;99.90;;;;;;5059030;28;20215;-88
2021/08/29 09:17:59;;;;;;;13.50;3.47;;;19.70;99.90;;;;;;5075316;28;20237;-89
2021/08/29 09:20:27;;;;;;;14.37;4.07;;;19.80;99.90;;;;;;5061283;28;20691;-89
2021/08/29 09:23:01;;;;;;;15.40;4.00;;;20.10;99.90;;;;;;5057941;28;20230;-89
2021/08/29 09:25:59;;;;;;;13.83;4.13;;;20.20;99.90;;;;;;5026453;28;20596;-89
2021/08/29 09:28:55;;;;;;;12.67;3.83;;;20.40;99.90;;;;;;5079706;28;20179;-88
2021/08/29 09:31:22;;;;;;;13.83;4.77;;;20.20;99.90;;;;;;5059880;28;20572;-88
2021/08/29 09:34:02;;;;;;;14.27;4.43;;;20.10;99.90;;;;;;5056069;28;20190;-89
2021/08/29 09:36:33;;;;;;;16.53;4.03;;;20.20;99.90;;;;;;5060623;28;20178;-89
2021/08/29 09:39:16;;;;;;;15.10;3.80;;;20.40;99.90;;;;;;5049869;28;20299;-88
2021/08/29 09:42:04;;;;;;;11.43;3.53;;;20.50;99.90;;;;;;5079536;28;20184;-88
2021/08/29 09:44:43;;;;;;;15.70;4.40;;;20.60;99.90;;;;;;5074667;28;20187;-88
2021/08/29 09:47:43;;;;;;;14.00;4.17;;;20.70;99.90;;;;;;5069454;28;20656;-90
2021/08/29 09:50:46;;;;;;;13.27;3.97;;;20.70;99.90;;;;;;5018811;28;20287;-89
2021/08/29 09:53:43;;;;;;;14.07;4.63;;;20.80;99.90;;;;;;5061812;28;20198;-90
2021/08/29 09:56:21;;;;;;;15.20;5.67;;;20.70;99.90;;;;;;5054284;28;20177;-84
2021/08/29 09:59:07;;;;;;;16.57;4.90;;;20.70;99.90;;;;;;5081161;28;20678;-88
2021/08/29 10:02:33;;;;;;;15.97;5.03;;;20.70;99.90;;;;;;5033995;28;20217;-90
2021/08/29 10:05:15;;;;;;;13.57;5.00;;;20.80;99.90;;;;;;5035524;28;20177;-89
2021/08/29 10:07:57;;;;;;;13.50;6.57;;;20.50;99.90;;;;;;5077687;28;20615;-88
2021/08/29 10:10:25;;;;;;;14.80;4.90;;;20.20;99.90;;;;;;5055777;28;20234;-89
2021/08/29 10:12:54;;;;;;;16.67;4.10;;;20.20;99.90;;;;;;5077215;28;20210;-90
2021/08/29 10:15:20;;;;;;;12.27;3.80;;;19.90;99.90;;;;;;5052871;28;20648;-89
2021/08/29 10:18:04;;;;;;;12.57;3.93;;;19.90;99.90;;;;;;5054224;28;20220;-89
2021/08/29 10:20:32;;;;;;;12.53;4.10;;;19.80;99.90;;;;;;5046615;28;20194;-88
2021/08/29 10:23:19;;;;;;;11.70;3.70;;;20.10;99.90;;;;;;5051976;28;20262;-89
2021/08/29 10:25:46;;;;;;;9.50;3.20;;;20.30;99.90;;;;;;5032400;28;20597;-89
2021/08/29 10:28:39;;;;;;;14.37;3.70;;;20.10;99.90;;;;;;5060464;28;20206;-90
2021/08/29 10:31:28;;;;;;;11.70;3.37;;;20.00;99.90;;;;;;5073111;28;20212;-90
2021/08/29 10:34:12;;;;;;;11.83;3.40;;;20.10;99.90;;;;;;5048010;28;20190;-84
2021/08/29 10:36:39;;;;;;;11.83;3.33;;;20.10;99.90;;;;;;5052577;28;20174;-89
2021/08/29 10:39:05;;;;;;;11.07;2.97;;;20.20;99.90;;;;;;5055837;28;20594;-89
2021/08/29 10:41:54;;;;;;;12.37;3.30;;;19.90;99.90;;;;;;5037289;28;20221;-89
2021/08/29 10:44:31;;;;;;;13.17;3.13;;;19.80;99.90;;;;;;5040191;28;20178;-89
2021/08/29 10:47:23;;;;;;;12.43;2.90;;;19.80;99.90;;;;;;5035719;28;20532;-88
2021/08/29 10:50:12;;;;;;;9.40;2.60;;;19.80;99.90;;;;;;5058665;28;20341;-89
2021/08/29 10:52:38;;;;;;;10.07;2.53;;;19.70;99.90;;;;;;5041512;28;20198;-90
2021/08/29 10:55:10;;;;;;;12.03;2.70;;;19.70;99.90;;;;;;5039092;28;20190;-90
2021/08/29 10:57:39;;;;;;;13.17;3.07;;;19.40;99.90;;;;;;5053081;28;20236;-83
2021/08/29 11:00:17;;;;;;;11.40;3.00;;;19.30;99.90;;;;;;5039363;28;20194;-84
2021/08/29 11:02:51;;;;;;;10.90;3.10;;;19.30;99.90;;;;;;5033657;28;20632;-84
2021/08/29 11:05:43;;;;;;;11.17;2.97;;;19.40;99.90;;;;;;5047851;28;20184;-88
2021/08/29 11:08:30;;;;;;;14.23;2.87;;;19.50;99.90;;;;;;5038557;28;20215;-90
2021/08/29 11:10:59;;;;;;;11.90;2.97;;;19.60;99.90;;;;;;5056683;28;20193;-87
2021/08/29 11:13:32;;;;;;;8.53;2.70;;;19.80;99.90;;;;;;5049941;28;20194;-88
2021/08/29 11:16:13;;;;;;;10.57;3.20;;;19.90;99.90;;;;;;5047007;28;20231;-83
2021/08/29 11:19:04;;;;;;;9.70;2.47;;;20.10;99.90;;;;;;5048803;28;21575;-88
2021/08/29 11:21:53;;;;;;;12.53;2.70;;;19.90;99.90;;;;;;5041127;28;20197;-87
2021/08/29 11:24:56;;;;;;;10.47;2.67;;;19.90;99.90;;;;;;5073814;28;20193;-89
2021/08/29 11:27:34;;;;;;;8.60;2.70;;;20.10;99.90;;;;;;5056135;28;20183;-89
2021/08/29 11:30:38;;;;;;;9.37;2.60;;;20.10;99.90;;;;;;5074465;28;20183;-91
2021/08/29 11:33:22;;;;;;;11.30;2.23;;;20.30;99.90;;;;;;5069556;28;20190;-88
2021/08/29 11:35:55;;;;;;;12.00;3.20;;;20.00;99.90;;;;;;5062306;28;20204;-88
2021/08/29 11:38:46;;;;;;;8.77;2.30;;;20.00;99.90;;;;;;5075719;28;20257;-88
2021/08/29 11:41:16;;;;;;;13.43;2.73;;;20.20;99.90;;;;;;5055696;28;20278;-89
2021/08/29 11:43:52;;;;;;;15.10;3.17;;;20.30;99.90;;;;;;5063175;28;20235;-89
2021/08/29 11:46:27;;;;;;;11.83;3.07;;;20.60;99.90;;;;;;5057927;28;20174;-89
2021/08/29 11:49:14;;;;;;;12.27;2.67;;;20.80;99.90;;;;;;5061219;28;20174;-89
2021/08/29 11:51:50;;;;;;;11.07;2.80;;;20.90;99.90;;;;;;5059484;28;20294;-91
2021/08/29 11:54:38;;;;;;;10.37;2.63;;;20.90;99.90;;;;;;5081142;28;20219;-88
2021/08/29 11:57:04;;;;;;;9.53;2.50;;;21.10;99.90;;;;;;5062859;28;20195;-90
2021/08/29 11:59:33;;;;;;;10.20;2.87;;;20.80;99.90;;;;;;5066511;28;20186;-90
2021/08/29 12:02:09;;;;;;;11.53;2.87;;;20.70;99.90;;;;;;5069561;28;20214;-90
2021/08/29 12:04:44;;;;;;;13.27;2.50;;;20.70;99.90;;;;;;5080682;28;20180;-91
2021/08/29 12:07:38;;;;;;;10.63;2.63;;;20.90;99.90;;;;;;5090283;28;20177;-89
2021/08/29 12:10:25;;;;;;;12.43;3.03;;;20.50;99.90;;;;;;5098748;28;20233;-92
2021/08/29 12:13:10;;;;;;;7.60;2.30;;;20.30;99.90;;;;;;5101316;28;20189;-90
2021/08/29 12:15:56;;;;;;;10.20;2.30;;;20.20;99.90;;;;;;5098468;28;20236;-89
2021/08/29 12:18:39;;;;;;;8.93;2.40;;;20.30;99.90;;;;;;5068821;28;21322;-91
2021/08/29 12:21:09;;;;;;;13.07;2.50;;;20.20;99.90;;;;;;5080303;28;20193;-88
2021/08/29 12:24:01;;;;;;;11.77;2.80;;;20.20;99.90;;;;;;5069872;28;20237;-88
2021/08/29 12:26:29;;;;;;;11.07;2.30;;;20.30;99.90;;;;;;5063472;28;20224;-88
2021/08/29 12:29:02;;;;;;;10.03;2.27;;;20.60;99.90;;;;;;5061215;28;20266;-90
2021/08/29 12:31:36;;;;;;;10.50;2.57;;;20.60;99.90;;;;;;5080362;28;20185;-91
2021/08/29 12:34:02;;;;;;;11.60;2.53;;;20.40;99.90;;;;;;5063408;28;20179;-91
2021/08/29 12:36:31;;;;;;;14.80;3.10;;;20.30;99.90;;;;;;5063572;28;20183;-88
2021/08/29 12:38:58;;;;;;;14.87;2.80;;;20.20;99.90;;;;;;5063254;28;20721;-90
2021/08/29 12:41:24;;;;;;;10.10;2.90;;;20.30;99.90;;;;;;5065118;28;20174;-91
2021/08/29 12:43:50;;;;;;;10.13;2.57;;;20.50;99.90;;;;;;5061276;28;20297;-91
2021/08/29 12:46:19;;;;;;;12.83;3.10;;;20.40;99.90;;;;;;5064042;28;20188;-91
2021/08/29 12:48:48;;;;;;;10.30;2.90;;;19.90;99.90;;;;;;5062541;28;20199;-93
2021/08/29 12:51:14;;;;;;;10.90;2.80;;;19.60;99.90;;;;;;5063659;28;20228;-92
2021/08/29 12:53:40;;;;;;;8.67;2.97;;;19.30;99.90;;;;;;5066148;28;20184;-90
2021/08/29 12:56:18;;;;;;;10.77;3.30;;;19.10;99.90;;;;;;5074344;28;20641;-94
2021/08/29 12:58:47;;;;;;;13.40;3.53;;;18.90;99.90;;;;;;5071287;28;20264;-93
2021/08/29 13:01:14;;;;;;;11.53;3.17;;;18.90;99.90;;;;;;5065506;28;20206;-91
2021/08/29 13:03:47;;;;;;;11.70;3.00;;;18.50;99.90;;;;;;5058386;28;20202;-90
2021/08/29 13:06:18;;;;;;;11.47;3.30;;;18.50;99.90;;;;;;5067350;28;20662;-91
2021/08/29 13:08:49;;;;;;;9.60;2.90;;;18.50;99.90;;;;;;5064835;28;20206;-91
2021/08/29 13:11:21;;;;;;;10.27;3.03;;;18.50;99.90;;;;;;5061995;28;20180;-91
2021/08/29 13:13:57;;;;;;;8.87;2.90;;;18.40;99.90;;;;;;5079383;28;20198;-89